Lindstrom, Minnesota
Current Conditions -  °F | °C
As of 7:55 AM on Friday 31 Oct 2014 (Local Time) from KOEO Reporting Station
Overcast Overcast  
Wind Chill: 19°   Ceiling: 3300
Heat Index: 27°   Visibility: 10mi
Dew Point: 18°   Wind: 7mph
Humidity: 70%   Direction: 340°NNW
Pressure: 30.54"   Gusts: NA
Location:  45.39°N, 92.85°W
Report Text: KOEO 311255Z AUTO 34006KT 10SM OVC033 M03/M08 A3054 RMK AO2 T10291076
Loading
Personal Weather Stations






























Interactive Weather Map
Tropical Storm Tracking
New forecast layout! Learn more

10-Day Weather Forecast

Advertisements
Track Severe Weather on mobile